Opole, Poland

2:53 PM CET on December 28, 2014 (GMT +0100)
BUDKOWICE-OPOLSKIE | Change Station
CLOSE
Current Station
Personal Weather Station
Location: Polska,
Elevation: 581 ft
Nearby Weather Stations

Elev 581 ft 50.86 °N, 18.07 °E | Updated 33 seconds ago

Partly Cloudy
Partly Cloudy
17.2 °F
Feels Like 11 °F
N
3.8
Wind Variable Wind from NE
Gusts 7.6 mph

Today
High -- | Low -- °F
--% Chance of Precip.
Yesterday
High -- | Low -- °F
Precip. -- in
7:50 AM 3:49 PM
Waxing Crescent, 48% visible
Pressure 30.12 in
Visibility 6.2 miles
Clouds Few 1700 ft
Windchill 11 °F
Dew Point 16 °F
Humidity 97%
Rainfall 0.00 in
Snow Depth Not available.
UV 0 out of 12
Pollen Not available.
Air Quality Not available.
Flu Activity Not available.
METAR EPWR 281330Z 32008KT 9999 FEW017 M07/M11 Q1020

More Conditions Fewer Conditions

Pressure 30.12 in
Visibility 6.2 miles
Clouds Few 1700 ft
Windchill 11 °F
Dew Point 16 °F
Humidity 97%
Rainfall 0.00 in
Snow Depth Not available.
UV 0 out of 12
Pollen Not available.
Air Quality Not available.
Flu Activity Not available.
METAR EPWR 281330Z 32008KT 9999 FEW017 M07/M11 Q1020

More Conditions Fewer Conditions

10-Day Weather Forecast

Almanac

Astronomy

Dec. 28, 2014 Rise Set
Actual Time
Civil Twilight
Nautical Twilight
Astronomical Twilight
Moon
Length of Visible Light
Length of Day
Tomorrow will be .
, % of the Moon is Illuminated

Today's Extremes

Country Highs Country Lows

Community

WunderPhotos

Upload Photos

1,781,262 photos uploaded!

WunderBlogs® & News

Nearby

Air Quality

  Air Quality AQ Index Pollutant
Not available.

Snow Depth

Station Depth Elevation

Earthquake Activity

City Distance Mag. Time & Date
Minimum magnitude displayed is 2.5.

Coastal Water Temperatures

Place Temperature

Nearby Weather Stations